sensor_id;sensor_type;location;lat;lon;timestamp;temperature;humidity
13354;DHT22;6746;50.892;4.064;2023-08-01T00:01:43;16.40;99.90
13354;DHT22;6746;50.892;4.064;2023-08-01T00:04:21;16.40;99.90
13354;DHT22;6746;50.892;4.064;2023-08-01T00:06:59;16.30;99.90
13354;DHT22;6746;50.892;4.064;2023-08-01T00:09:37;16.30;99.90
13354;DHT22;6746;50.892;4.064;2023-08-01T00:12:16;16.30;99.90
13354;DHT22;6746;50.892;4.064;2023-08-01T00:15:04;16.20;99.90
13354;DHT22;6746;50.892;4.064;2023-08-01T00:17:42;16.20;99.90
13354;DHT22;6746;50.892;4.064;2023-08-01T00:20:20;16.20;99.90
13354;DHT22;6746;50.892;4.064;2023-08-01T00:23:01;16.10;99.90
13354;DHT22;6746;50.892;4.064;2023-08-01T00:25:39;16.10;99.90
13354;DHT22;6746;50.892;4.064;2023-08-01T00:28:28;16.10;99.90
13354;DHT22;6746;50.892;4.064;2023-08-01T00:31:06;16.10;99.90
13354;DHT22;6746;50.892;4.064;2023-08-01T00:33:44;16.00;99.90
13354;DHT22;6746;50.892;4.064;2023-08-01T00:36:22;16.10;99.90
13354;DHT22;6746;50.892;4.064;2023-08-01T00:39:01;16.10;99.90
13354;DHT22;6746;50.892;4.064;2023-08-01T00:41:47;16.10;99.90
13354;DHT22;6746;50.892;4.064;2023-08-01T00:44:25;16.00;99.90
13354;DHT22;6746;50.892;4.064;2023-08-01T00:47:06;16.10;99.90
13354;DHT22;6746;50.892;4.064;2023-08-01T00:49:45;16.00;99.90
13354;DHT22;6746;50.892;4.064;2023-08-01T00:52:25;16.00;99.90
13354;DHT22;6746;50.892;4.064;2023-08-01T00:55:03;16.10;99.90
13354;DHT22;6746;50.892;4.064;2023-08-01T00:57:44;16.00;99.90
13354;DHT22;6746;50.892;4.064;2023-08-01T01:00:23;16.00;99.90
13354;DHT22;6746;50.892;4.064;2023-08-01T01:03:09;16.00;99.90
13354;DHT22;6746;50.892;4.064;2023-08-01T01:08:43;16.00;99.90
13354;DHT22;6746;50.892;4.064;2023-08-01T01:11:22;16.00;99.90
13354;DHT22;6746;50.892;4.064;2023-08-01T01:14:02;16.00;99.90
13354;DHT22;6746;50.892;4.064;2023-08-01T01:16:40;16.00;99.90
13354;DHT22;6746;50.892;4.064;2023-08-01T01:19:22;16.00;99.90
13354;DHT22;6746;50.892;4.064;2023-08-01T01:22:00;16.00;99.90
13354;DHT22;6746;50.892;4.064;2023-08-01T01:24:38;16.00;99.90
13354;DHT22;6746;50.892;4.064;2023-08-01T01:27:16;16.00;99.90
13354;DHT22;6746;50.892;4.064;2023-08-01T01:30:02;16.00;99.90
13354;DHT22;6746;50.892;4.064;2023-08-01T01:32:41;16.00;99.90
13354;DHT22;6746;50.892;4.064;2023-08-01T01:35:24;16.00;99.90
13354;DHT22;6746;50.892;4.064;2023-08-01T01:38:04;15.90;99.90
13354;DHT22;6746;50.892;4.064;2023-08-01T01:40:48;15.90;99.90
13354;DHT22;6746;50.892;4.064;2023-08-01T01:43:27;15.90;99.90
13354;DHT22;6746;50.892;4.064;2023-08-01T01:46:05;15.90;99.90
13354;DHT22;6746;50.892;4.064;2023-08-01T01:48:43;15.90;99.90
13354;DHT22;6746;50.892;4.064;2023-08-01T01:51:31;15.90;99.90
13354;DHT22;6746;50.892;4.064;2023-08-01T01:54:19;15.90;99.90
13354;DHT22;6746;50.892;4.064;2023-08-01T01:57:03;15.80;99.90
13354;DHT22;6746;50.892;4.064;2023-08-01T01:59:42;15.80;99.90
13354;DHT22;6746;50.892;4.064;2023-08-01T02:02:23;15.80;99.90
13354;DHT22;6746;50.892;4.064;2023-08-01T02:05:01;15.80;99.90
13354;DHT22;6746;50.892;4.064;2023-08-01T02:07:47;15.80;99.90
13354;DHT22;6746;50.892;4.064;2023-08-01T02:10:26;15.80;99.90
13354;DHT22;6746;50.892;4.064;2023-08-01T02:13:14;15.80;99.90
13354;DHT22;6746;50.892;4.064;2023-08-01T02:16:02;15.70;99.90
13354;DHT22;6746;50.892;4.064;2023-08-01T02:18:50;15.70;99.90
13354;DHT22;6746;50.892;4.064;2023-08-01T02:21:38;15.70;99.90
13354;DHT22;6746;50.892;4.064;2023-08-01T02:24:27;15.80;99.90
13354;DHT22;6746;50.892;4.064;2023-08-01T02:27:15;15.70;99.90
13354;DHT22;6746;50.892;4.064;2023-08-01T02:30:04;15.80;99.90
13354;DHT22;6746;50.892;4.064;2023-08-01T02:32:53;15.80;99.90
13354;DHT22;6746;50.892;4.064;2023-08-01T02:35:41;15.80;99.90
13354;DHT22;6746;50.892;4.064;2023-08-01T02:38:29;15.70;99.90
13354;DHT22;6746;50.892;4.064;2023-08-01T02:41:17;15.80;99.90
13354;DHT22;6746;50.892;4.064;2023-08-01T02:44:06;15.70;99.90
13354;DHT22;6746;50.892;4.064;2023-08-01T02:46:54;15.80;99.90
13354;DHT22;6746;50.892;4.064;2023-08-01T02:49:42;15.70;99.90
13354;DHT22;6746;50.892;4.064;2023-08-01T02:52:30;15.70;99.90
13354;DHT22;6746;50.892;4.064;2023-08-01T02:55:19;17.30;99.90
13354;DHT22;6746;50.892;4.064;2023-08-01T02:58:07;15.70;99.90
13354;DHT22;6746;50.892;4.064;2023-08-01T03:00:55;15.70;99.90
13354;DHT22;6746;50.892;4.064;2023-08-01T03:03:43;15.70;99.90
13354;DHT22;6746;50.892;4.064;2023-08-01T03:06:32;15.80;99.90
13354;DHT22;6746;50.892;4.064;2023-08-01T03:09:15;15.80;99.90
13354;DHT22;6746;50.892;4.064;2023-08-01T03:11:54;15.70;99.90
13354;DHT22;6746;50.892;4.064;2023-08-01T03:14:35;15.70;99.90
13354;DHT22;6746;50.892;4.064;2023-08-01T03:17:13;15.80;99.90
13354;DHT22;6746;50.892;4.064;2023-08-01T03:19:58;15.70;99.90
13354;DHT22;6746;50.892;4.064;2023-08-01T03:22:39;15.70;99.90
13354;DHT22;6746;50.892;4.064;2023-08-01T03:25:27;15.70;99.90
13354;DHT22;6746;50.892;4.064;2023-08-01T03:28:15;15.70;99.90
13354;DHT22;6746;50.892;4.064;2023-08-01T03:31:03;15.70;99.90
13354;DHT22;6746;50.892;4.064;2023-08-01T03:33:52;15.70;99.90
13354;DHT22;6746;50.892;4.064;2023-08-01T03:36:40;15.70;99.90
13354;DHT22;6746;50.892;4.064;2023-08-01T03:39:28;15.70;99.90
13354;DHT22;6746;50.892;4.064;2023-08-01T03:42:16;15.70;99.90
13354;DHT22;6746;50.892;4.064;2023-08-01T03:45:05;15.70;99.90
13354;DHT22;6746;50.892;4.064;2023-08-01T03:47:53;15.70;99.90
13354;DHT22;6746;50.892;4.064;2023-08-01T03:50:41;15.60;99.90
13354;DHT22;6746;50.892;4.064;2023-08-01T03:53:25;15.60;99.90
13354;DHT22;6746;50.892;4.064;2023-08-01T03:56:04;15.60;99.90
13354;DHT22;6746;50.892;4.064;2023-08-01T03:58:52;15.50;99.90
13354;DHT22;6746;50.892;4.064;2023-08-01T04:01:40;15.50;99.90
13354;DHT22;6746;50.892;4.064;2023-08-01T04:04:28;15.40;99.90
13354;DHT22;6746;50.892;4.064;2023-08-01T04:07:16;15.40;99.90
13354;DHT22;6746;50.892;4.064;2023-08-01T04:10:04;15.40;99.90
13354;DHT22;6746;50.892;4.064;2023-08-01T04:12:53;15.40;99.90
13354;DHT22;6746;50.892;4.064;2023-08-01T04:15:41;15.30;99.90
13354;DHT22;6746;50.892;4.064;2023-08-01T04:18:29;15.30;99.90
13354;DHT22;6746;50.892;4.064;2023-08-01T04:21:08;15.30;99.90
13354;DHT22;6746;50.892;4.064;2023-08-01T04:23:46;15.30;99.90
13354;DHT22;6746;50.892;4.064;2023-08-01T04:26:24;15.30;99.90
13354;DHT22;6746;50.892;4.064;2023-08-01T04:29:02;15.30;99.90
13354;DHT22;6746;50.892;4.064;2023-08-01T04:31:40;15.30;99.90
13354;DHT22;6746;50.892;4.064;2023-08-01T04:34:19;15.30;99.90
13354;DHT22;6746;50.892;4.064;2023-08-01T04:36:57;15.40;99.90
13354;DHT22;6746;50.892;4.064;2023-08-01T04:39:45;15.50;99.90
13354;DHT22;6746;50.892;4.064;2023-08-01T04:42:23;15.50;99.90
13354;DHT22;6746;50.892;4.064;2023-08-01T04:45:01;15.50;99.90
13354;DHT22;6746;50.892;4.064;2023-08-01T04:47:33;15.60;99.90
13354;DHT22;6746;50.892;4.064;2023-08-01T04:50:01;15.70;99.90
13354;DHT22;6746;50.892;4.064;2023-08-01T04:52:40;15.70;99.90
13354;DHT22;6746;50.892;4.064;2023-08-01T04:55:18;15.80;99.90
13354;DHT22;6746;50.892;4.064;2023-08-01T04:57:54;15.80;99.90
13354;DHT22;6746;50.892;4.064;2023-08-01T05:00:41;15.80;99.90
13354;DHT22;6746;50.892;4.064;2023-08-01T05:03:19;15.90;99.90
13354;DHT22;6746;50.892;4.064;2023-08-01T05:05:48;15.90;99.90
13354;DHT22;6746;50.892;4.064;2023-08-01T05:08:27;15.90;99.90
13354;DHT22;6746;50.892;4.064;2023-08-01T05:11:05;15.90;99.90
13354;DHT22;6746;50.892;4.064;2023-08-01T05:13:43;16.00;99.90
13354;DHT22;6746;50.892;4.064;2023-08-01T05:16:21;16.10;99.90
13354;DHT22;6746;50.892;4.064;2023-08-01T05:18:53;16.20;99.90
13354;DHT22;6746;50.892;4.064;2023-08-01T05:21:21;16.30;99.90
13354;DHT22;6746;50.892;4.064;2023-08-01T05:23:50;16.40;99.90
13354;DHT22;6746;50.892;4.064;2023-08-01T05:26:19;16.50;99.90
13354;DHT22;6746;50.892;4.064;2023-08-01T05:28:58;16.60;99.90
13354;DHT22;6746;50.892;4.064;2023-08-01T05:31:36;16.50;99.90
13354;DHT22;6746;50.892;4.064;2023-08-01T05:34:06;16.50;99.90
13354;DHT22;6746;50.892;4.064;2023-08-01T05:36:35;16.50;99.90
13354;DHT22;6746;50.892;4.064;2023-08-01T05:39:04;16.50;99.90
13354;DHT22;6746;50.892;4.064;2023-08-01T05:41:33;16.60;99.90
13354;DHT22;6746;50.892;4.064;2023-08-01T05:44:12;16.70;99.90
13354;DHT22;6746;50.892;4.064;2023-08-01T05:46:40;16.70;99.90
13354;DHT22;6746;50.892;4.064;2023-08-01T05:49:09;16.60;99.90
13354;DHT22;6746;50.892;4.064;2023-08-01T05:51:46;16.50;99.90
13354;DHT22;6746;50.892;4.064;2023-08-01T05:54:14;16.50;99.90
13354;DHT22;6746;50.892;4.064;2023-08-01T05:56:43;16.50;99.90
13354;DHT22;6746;50.892;4.064;2023-08-01T05:59:12;16.50;99.90
13354;DHT22;6746;50.892;4.064;2023-08-01T06:01:45;16.60;99.90
13354;DHT22;6746;50.892;4.064;2023-08-01T06:04:13;16.50;99.90
13354;DHT22;6746;50.892;4.064;2023-08-01T06:06:45;16.60;99.90
13354;DHT22;6746;50.892;4.064;2023-08-01T06:09:14;16.50;99.90
13354;DHT22;6746;50.892;4.064;2023-08-01T06:11:48;16.40;99.90
13354;DHT22;6746;50.892;4.064;2023-08-01T06:14:17;16.40;99.90
13354;DHT22;6746;50.892;4.064;2023-08-01T06:16:56;16.40;99.90
13354;DHT22;6746;50.892;4.064;2023-08-01T06:19:27;16.40;99.90
13354;DHT22;6746;50.892;4.064;2023-08-01T06:21:56;16.50;99.90
13354;DHT22;6746;50.892;4.064;2023-08-01T06:24:31;16.50;99.90
13354;DHT22;6746;50.892;4.064;2023-08-01T06:27:00;16.50;99.90
13354;DHT22;6746;50.892;4.064;2023-08-01T06:29:33;16.50;99.90
13354;DHT22;6746;50.892;4.064;2023-08-01T06:32:02;16.60;99.90
13354;DHT22;6746;50.892;4.064;2023-08-01T06:34:39;16.80;99.90
13354;DHT22;6746;50.892;4.064;2023-08-01T06:37:07;17.30;99.90
13354;DHT22;6746;50.892;4.064;2023-08-01T06:39:36;17.60;99.90
13354;DHT22;6746;50.892;4.064;2023-08-01T06:42:05;17.80;99.90
13354;DHT22;6746;50.892;4.064;2023-08-01T06:44:34;18.00;99.90
13354;DHT22;6746;50.892;4.064;2023-08-01T06:47:03;18.20;99.90
13354;DHT22;6746;50.892;4.064;2023-08-01T06:49:32;18.40;99.90
13354;DHT22;6746;50.892;4.064;2023-08-01T06:52:01;18.50;99.90
13354;DHT22;6746;50.892;4.064;2023-08-01T06:54:39;18.50;99.90
13354;DHT22;6746;50.892;4.064;2023-08-01T06:57:17;18.50;99.90
13354;DHT22;6746;50.892;4.064;2023-08-01T06:59:46;18.40;99.90
13354;DHT22;6746;50.892;4.064;2023-08-01T07:02:15;18.40;99.90
13354;DHT22;6746;50.892;4.064;2023-08-01T07:04:53;18.30;99.90
13354;DHT22;6746;50.892;4.064;2023-08-01T07:07:31;18.30;99.90
13354;DHT22;6746;50.892;4.064;2023-08-01T07:10:19;18.50;99.90
13354;DHT22;6746;50.892;4.064;2023-08-01T07:12:57;18.50;99.90
13354;DHT22;6746;50.892;4.064;2023-08-01T07:15:36;18.40;99.90
13354;DHT22;6746;50.892;4.064;2023-08-01T07:18:13;18.40;99.90
13354;DHT22;6746;50.892;4.064;2023-08-01T07:21:04;18.60;99.90
13354;DHT22;6746;50.892;4.064;2023-08-01T07:23:42;18.60;99.90
13354;DHT22;6746;50.892;4.064;2023-08-01T07:26:20;18.60;99.90
13354;DHT22;6746;50.892;4.064;2023-08-01T07:28:58;18.70;99.90
13354;DHT22;6746;50.892;4.064;2023-08-01T07:31:47;18.80;99.90
13354;DHT22;6746;50.892;4.064;2023-08-01T07:34:25;18.80;99.90
13354;DHT22;6746;50.892;4.064;2023-08-01T07:37:03;18.70;99.90
13354;DHT22;6746;50.892;4.064;2023-08-01T07:39:39;18.50;99.90
13354;DHT22;6746;50.892;4.064;2023-08-01T07:42:08;18.50;99.90
13354;DHT22;6746;50.892;4.064;2023-08-01T07:44:37;18.50;99.90
13354;DHT22;6746;50.892;4.064;2023-08-01T07:47:06;18.70;99.90
13354;DHT22;6746;50.892;4.064;2023-08-01T07:49:43;18.80;99.90
13354;DHT22;6746;50.892;4.064;2023-08-01T07:52:14;18.80;99.90
13354;DHT22;6746;50.892;4.064;2023-08-01T07:54:48;19.30;99.90
13354;DHT22;6746;50.892;4.064;2023-08-01T07:57:17;19.70;99.90
13354;DHT22;6746;50.892;4.064;2023-08-01T07:59:49;20.20;99.90
13354;DHT22;6746;50.892;4.064;2023-08-01T08:02:18;20.60;99.90
13354;DHT22;6746;50.892;4.064;2023-08-01T08:04:56;21.00;99.90
13354;DHT22;6746;50.892;4.064;2023-08-01T08:07:36;21.30;99.90
13354;DHT22;6746;50.892;4.064;2023-08-01T08:10:13;21.60;99.90
13354;DHT22;6746;50.892;4.064;2023-08-01T08:12:54;21.80;99.90
13354;DHT22;6746;50.892;4.064;2023-08-01T08:15:32;21.80;99.90
13354;DHT22;6746;50.892;4.064;2023-08-01T08:18:01;21.20;99.90
13354;DHT22;6746;50.892;4.064;2023-08-01T08:20:30;21.00;99.90
13354;DHT22;6746;50.892;4.064;2023-08-01T08:23:08;20.90;99.90
13354;DHT22;6746;50.892;4.064;2023-08-01T08:25:46;20.90;99.90
13354;DHT22;6746;50.892;4.064;2023-08-01T08:28:27;21.30;99.90
13354;DHT22;6746;50.892;4.064;2023-08-01T08:30:46;21.70;99.90
13354;DHT22;6746;50.892;4.064;2023-08-01T08:33:21;22.10;99.90
13354;DHT22;6746;50.892;4.064;2023-08-01T08:35:50;22.50;99.90
13354;DHT22;6746;50.892;4.064;2023-08-01T08:38:28;22.70;99.90
13354;DHT22;6746;50.892;4.064;2023-08-01T08:41:08;22.90;99.90
13354;DHT22;6746;50.892;4.064;2023-08-01T08:43:47;23.00;99.90
13354;DHT22;6746;50.892;4.064;2023-08-01T08:46:28;23.10;99.90
13354;DHT22;6746;50.892;4.064;2023-08-01T08:49:05;22.90;99.90
13354;DHT22;6746;50.892;4.064;2023-08-01T08:51:37;22.70;99.90
13354;DHT22;6746;50.892;4.064;2023-08-01T08:54:06;22.90;99.90
13354;DHT22;6746;50.892;4.064;2023-08-01T08:56:35;23.20;99.90
13354;DHT22;6746;50.892;4.064;2023-08-01T08:59:04;23.10;99.90
13354;DHT22;6746;50.892;4.064;2023-08-01T09:01:40;22.50;99.90
13354;DHT22;6746;50.892;4.064;2023-08-01T09:04:09;22.50;99.90
13354;DHT22;6746;50.892;4.064;2023-08-01T09:06:54;22.30;99.90
13354;DHT22;6746;50.892;4.064;2023-08-01T09:09:31;22.20;99.90
13354;DHT22;6746;50.892;4.064;2023-08-01T09:12:09;22.10;99.90
13354;DHT22;6746;50.892;4.064;2023-08-01T09:14:48;22.20;99.90
13354;DHT22;6746;50.892;4.064;2023-08-01T09:17:25;22.30;99.90
13354;DHT22;6746;50.892;4.064;2023-08-01T09:20:04;22.50;99.90
13354;DHT22;6746;50.892;4.064;2023-08-01T09:22:45;22.80;99.90
13354;DHT22;6746;50.892;4.064;2023-08-01T09:25:14;22.80;99.90
13354;DHT22;6746;50.892;4.064;2023-08-01T09:27:52;22.60;99.90
13354;DHT22;6746;50.892;4.064;2023-08-01T09:30:21;22.30;99.90
13354;DHT22;6746;50.892;4.064;2023-08-01T09:33:00;22.00;99.90
13354;DHT22;6746;50.892;4.064;2023-08-01T09:35:38;22.10;99.90
13354;DHT22;6746;50.892;4.064;2023-08-01T09:38:16;22.10;99.90
13354;DHT22;6746;50.892;4.064;2023-08-01T09:40:54;22.50;99.90
13354;DHT22;6746;50.892;4.064;2023-08-01T09:43:33;23.10;99.90
13354;DHT22;6746;50.892;4.064;2023-08-01T09:46:09;23.40;99.90
13354;DHT22;6746;50.892;4.064;2023-08-01T09:48:41;23.30;99.90
13354;DHT22;6746;50.892;4.064;2023-08-01T09:51:16;23.30;99.90
13354;DHT22;6746;50.892;4.064;2023-08-01T09:53:50;23.30;99.90
13354;DHT22;6746;50.892;4.064;2023-08-01T09:56:29;23.60;99.90
13354;DHT22;6746;50.892;4.064;2023-08-01T09:58:58;23.60;99.90
13354;DHT22;6746;50.892;4.064;2023-08-01T10:01:37;23.40;99.90
13354;DHT22;6746;50.892;4.064;2023-08-01T10:04:15;23.20;99.90
13354;DHT22;6746;50.892;4.064;2023-08-01T10:07:00;23.50;99.90
13354;DHT22;6746;50.892;4.064;2023-08-01T10:09:46;23.00;99.90
13354;DHT22;6746;50.892;4.064;2023-08-01T10:12:23;23.20;99.90
13354;DHT22;6746;50.892;4.064;2023-08-01T10:14:52;23.10;99.90
13354;DHT22;6746;50.892;4.064;2023-08-01T10:17:30;23.30;99.90
13354;DHT22;6746;50.892;4.064;2023-08-01T10:20:01;23.10;99.90
13354;DHT22;6746;50.892;4.064;2023-08-01T10:22:30;22.80;99.90
13354;DHT22;6746;50.892;4.064;2023-08-01T10:25:07;22.50;99.90
13354;DHT22;6746;50.892;4.064;2023-08-01T10:27:35;22.50;99.90
13354;DHT22;6746;50.892;4.064;2023-08-01T10:30:05;22.40;99.90
13354;DHT22;6746;50.892;4.064;2023-08-01T10:32:35;22.30;99.90
13354;DHT22;6746;50.892;4.064;2023-08-01T10:35:08;22.50;99.90
13354;DHT22;6746;50.892;4.064;2023-08-01T10:37:40;22.90;99.90
13354;DHT22;6746;50.892;4.064;2023-08-01T10:40:21;23.20;99.90
13354;DHT22;6746;50.892;4.064;2023-08-01T10:42:55;23.50;99.90
13354;DHT22;6746;50.892;4.064;2023-08-01T10:45:24;23.60;99.90
13354;DHT22;6746;50.892;4.064;2023-08-01T10:48:08;23.70;99.90
13354;DHT22;6746;50.892;4.064;2023-08-01T10:50:54;23.30;99.90
13354;DHT22;6746;50.892;4.064;2023-08-01T10:53:38;23.20;99.90
13354;DHT22;6746;50.892;4.064;2023-08-01T10:56:19;22.90;99.90
13354;DHT22;6746;50.892;4.064;2023-08-01T10:58:57;22.80;99.90
13354;DHT22;6746;50.892;4.064;2023-08-01T11:01:42;23.30;99.90
13354;DHT22;6746;50.892;4.064;2023-08-01T11:04:14;23.10;99.90
13354;DHT22;6746;50.892;4.064;2023-08-01T11:06:52;22.90;99.90
13354;DHT22;6746;50.892;4.064;2023-08-01T11:09:30;23.10;99.90
13354;DHT22;6746;50.892;4.064;2023-08-01T11:12:18;23.20;99.90
13354;DHT22;6746;50.892;4.064;2023-08-01T11:15:01;23.40;99.90
13354;DHT22;6746;50.892;4.064;2023-08-01T11:17:40;23.60;99.90
13354;DHT22;6746;50.892;4.064;2023-08-01T11:20:19;23.90;99.90
13354;DHT22;6746;50.892;4.064;2023-08-01T11:22:56;23.60;99.90
13354;DHT22;6746;50.892;4.064;2023-08-01T11:25:34;23.20;99.90
13354;DHT22;6746;50.892;4.064;2023-08-01T11:28:15;23.20;99.90
13354;DHT22;6746;50.892;4.064;2023-08-01T11:30:53;22.90;99.90
13354;DHT22;6746;50.892;4.064;2023-08-01T11:33:41;22.90;99.90
13354;DHT22;6746;50.892;4.064;2023-08-01T11:36:09;22.60;99.90
13354;DHT22;6746;50.892;4.064;2023-08-01T11:38:37;22.60;99.90
13354;DHT22;6746;50.892;4.064;2023-08-01T11:41:06;23.00;99.90
13354;DHT22;6746;50.892;4.064;2023-08-01T11:43:39;23.20;99.90
13354;DHT22;6746;50.892;4.064;2023-08-01T11:46:10;23.60;99.90
13354;DHT22;6746;50.892;4.064;2023-08-01T11:48:39;23.80;99.90
13354;DHT22;6746;50.892;4.064;2023-08-01T11:51:17;23.80;99.90
13354;DHT22;6746;50.892;4.064;2023-08-01T11:54:02;23.70;99.90
13354;DHT22;6746;50.892;4.064;2023-08-01T11:56:39;23.10;99.90
13354;DHT22;6746;50.892;4.064;2023-08-01T11:59:17;22.90;99.90
13354;DHT22;6746;50.892;4.064;2023-08-01T12:01:53;22.60;99.90
13354;DHT22;6746;50.892;4.064;2023-08-01T12:04:25;22.20;99.90
13354;DHT22;6746;50.892;4.064;2023-08-01T12:07:11;21.90;99.90
13354;DHT22;6746;50.892;4.064;2023-08-01T12:09:40;21.90;99.90
13354;DHT22;6746;50.892;4.064;2023-08-01T12:12:12;21.90;99.90
13354;DHT22;6746;50.892;4.064;2023-08-01T12:14:46;21.80;99.90
13354;DHT22;6746;50.892;4.064;2023-08-01T12:17:15;21.80;99.90
13354;DHT22;6746;50.892;4.064;2023-08-01T12:19:53;21.90;99.90
13354;DHT22;6746;50.892;4.064;2023-08-01T12:22:32;21.70;99.90
13354;DHT22;6746;50.892;4.064;2023-08-01T12:25:10;21.80;99.90
13354;DHT22;6746;50.892;4.064;2023-08-01T12:27:48;21.80;99.90
13354;DHT22;6746;50.892;4.064;2023-08-01T12:30:26;21.90;99.90
13354;DHT22;6746;50.892;4.064;2023-08-01T12:33:12;21.90;99.90
13354;DHT22;6746;50.892;4.064;2023-08-01T12:35:41;21.70;99.90
13354;DHT22;6746;50.892;4.064;2023-08-01T12:38:19;21.70;99.90
13354;DHT22;6746;50.892;4.064;2023-08-01T12:40:57;21.80;99.90
13354;DHT22;6746;50.892;4.064;2023-08-01T12:43:29;22.10;99.90
13354;DHT22;6746;50.892;4.064;2023-08-01T12:45:57;22.00;99.90
13354;DHT22;6746;50.892;4.064;2023-08-01T12:48:36;22.20;99.90
13354;DHT22;6746;50.892;4.064;2023-08-01T12:51:14;22.30;99.90
13354;DHT22;6746;50.892;4.064;2023-08-01T12:53:45;22.70;99.90
13354;DHT22;6746;50.892;4.064;2023-08-01T12:56:14;23.10;99.90
13354;DHT22;6746;50.892;4.064;2023-08-01T12:58:46;23.30;99.90
13354;DHT22;6746;50.892;4.064;2023-08-01T13:01:15;23.10;99.90
13354;DHT22;6746;50.892;4.064;2023-08-01T13:03:53;22.90;99.90
13354;DHT22;6746;50.892;4.064;2023-08-01T13:06:31;23.00;99.90
13354;DHT22;6746;50.892;4.064;2023-08-01T13:09:10;23.10;99.90
13354;DHT22;6746;50.892;4.064;2023-08-01T13:11:46;23.40;99.90
13354;DHT22;6746;50.892;4.064;2023-08-01T13:14:24;23.80;99.90
13354;DHT22;6746;50.892;4.064;2023-08-01T13:16:58;23.80;99.90
13354;DHT22;6746;50.892;4.064;2023-08-01T13:19:27;23.60;99.90
13354;DHT22;6746;50.892;4.064;2023-08-01T13:22:06;23.40;99.90
13354;DHT22;6746;50.892;4.064;2023-08-01T13:24:39;23.20;99.90
13354;DHT22;6746;50.892;4.064;2023-08-01T13:27:08;23.20;99.90
13354;DHT22;6746;50.892;4.064;2023-08-01T13:29:47;23.30;99.90
13354;DHT22;6746;50.892;4.064;2023-08-01T13:32:25;23.70;99.90
13354;DHT22;6746;50.892;4.064;2023-08-01T13:34:59;23.90;99.90
13354;DHT22;6746;50.892;4.064;2023-08-01T13:37:28;23.80;99.90
13354;DHT22;6746;50.892;4.064;2023-08-01T13:40:07;23.60;99.90
13354;DHT22;6746;50.892;4.064;2023-08-01T13:42:45;23.60;99.90
13354;DHT22;6746;50.892;4.064;2023-08-01T13:45:23;23.50;99.90
13354;DHT22;6746;50.892;4.064;2023-08-01T13:48:02;23.20;99.90
13354;DHT22;6746;50.892;4.064;2023-08-01T13:50:41;22.80;99.90
13354;DHT22;6746;50.892;4.064;2023-08-01T13:53:19;22.00;99.90
13354;DHT22;6746;50.892;4.064;2023-08-01T13:55:48;21.70;99.90
13354;DHT22;6746;50.892;4.064;2023-08-01T13:58:17;21.20;99.90
13354;DHT22;6746;50.892;4.064;2023-08-01T14:00:55;21.00;99.90
13354;DHT22;6746;50.892;4.064;2023-08-01T14:03:32;20.90;99.90
13354;DHT22;6746;50.892;4.064;2023-08-01T14:06:06;20.80;99.90
13354;DHT22;6746;50.892;4.064;2023-08-01T14:08:44;20.70;99.90
13354;DHT22;6746;50.892;4.064;2023-08-01T14:11:23;20.70;99.90
13354;DHT22;6746;50.892;4.064;2023-08-01T14:14:02;20.70;99.90
13354;DHT22;6746;50.892;4.064;2023-08-01T14:16:41;20.70;99.90
13354;DHT22;6746;50.892;4.064;2023-08-01T14:19:29;20.60;99.90
13354;DHT22;6746;50.892;4.064;2023-08-01T14:22:07;20.70;99.90
13354;DHT22;6746;50.892;4.064;2023-08-01T14:24:45;20.90;99.90
13354;DHT22;6746;50.892;4.064;2023-08-01T14:27:23;21.20;99.90
13354;DHT22;6746;50.892;4.064;2023-08-01T14:30:02;21.40;99.90
13354;DHT22;6746;50.892;4.064;2023-08-01T14:32:40;21.60;99.90
13354;DHT22;6746;50.892;4.064;2023-08-01T14:35:18;21.60;99.90
13354;DHT22;6746;50.892;4.064;2023-08-01T14:37:56;21.40;99.90
13354;DHT22;6746;50.892;4.064;2023-08-01T14:40:44;20.90;99.90
13354;DHT22;6746;50.892;4.064;2023-08-01T14:43:22;20.50;99.90
13354;DHT22;6746;50.892;4.064;2023-08-01T14:46:01;20.30;99.90
13354;DHT22;6746;50.892;4.064;2023-08-01T14:48:39;20.00;99.90
13354;DHT22;6746;50.892;4.064;2023-08-01T14:51:17;19.90;99.90
13354;DHT22;6746;50.892;4.064;2023-08-01T14:54:05;19.70;99.90
13354;DHT22;6746;50.892;4.064;2023-08-01T14:56:55;19.70;99.90
13354;DHT22;6746;50.892;4.064;2023-08-01T14:59:34;19.80;99.90
13354;DHT22;6746;50.892;4.064;2023-08-01T15:02:12;19.50;99.90
13354;DHT22;6746;50.892;4.064;2023-08-01T15:04:51;19.30;99.90
13354;DHT22;6746;50.892;4.064;2023-08-01T15:07:29;19.20;99.90
13354;DHT22;6746;50.892;4.064;2023-08-01T15:10:07;18.90;99.90
13354;DHT22;6746;50.892;4.064;2023-08-01T15:12:45;19.00;99.90
13354;DHT22;6746;50.892;4.064;2023-08-01T15:15:23;19.00;99.90
13354;DHT22;6746;50.892;4.064;2023-08-01T15:18:11;19.00;99.90
13354;DHT22;6746;50.892;4.064;2023-08-01T15:20:50;19.10;99.90
13354;DHT22;6746;50.892;4.064;2023-08-01T15:23:28;19.10;99.90
13354;DHT22;6746;50.892;4.064;2023-08-01T15:26:06;19.20;99.90
13354;DHT22;6746;50.892;4.064;2023-08-01T15:28:44;19.30;99.90
13354;DHT22;6746;50.892;4.064;2023-08-01T15:31:22;19.40;99.90
13354;DHT22;6746;50.892;4.064;2023-08-01T15:33:56;19.50;99.90
13354;DHT22;6746;50.892;4.064;2023-08-01T15:36:28;19.60;99.90
13354;DHT22;6746;50.892;4.064;2023-08-01T15:39:06;19.70;99.90
13354;DHT22;6746;50.892;4.064;2023-08-01T15:41:45;19.80;99.90
13354;DHT22;6746;50.892;4.064;2023-08-01T15:44:23;19.90;99.90
13354;DHT22;6746;50.892;4.064;2023-08-01T15:47:01;20.00;99.90
13354;DHT22;6746;50.892;4.064;2023-08-01T15:49:34;20.20;99.90
13354;DHT22;6746;50.892;4.064;2023-08-01T15:52:03;20.30;99.90
13354;DHT22;6746;50.892;4.064;2023-08-01T15:54:42;20.40;99.90
13354;DHT22;6746;50.892;4.064;2023-08-01T15:57:20;20.50;99.90
13354;DHT22;6746;50.892;4.064;2023-08-01T15:59:58;20.60;99.90
13354;DHT22;6746;50.892;4.064;2023-08-01T16:02:38;20.90;99.90
13354;DHT22;6746;50.892;4.064;2023-08-01T16:05:06;21.20;99.90
13354;DHT22;6746;50.892;4.064;2023-08-01T16:07:45;21.40;99.90
13354;DHT22;6746;50.892;4.064;2023-08-01T16:10:23;21.30;99.90
13354;DHT22;6746;50.892;4.064;2023-08-01T16:12:54;21.40;99.90
13354;DHT22;6746;50.892;4.064;2023-08-01T16:15:23;21.30;99.90
13354;DHT22;6746;50.892;4.064;2023-08-01T16:17:55;21.30;99.90
13354;DHT22;6746;50.892;4.064;2023-08-01T16:20:24;21.40;99.90
13354;DHT22;6746;50.892;4.064;2023-08-01T16:22:53;21.30;99.90
13354;DHT22;6746;50.892;4.064;2023-08-01T16:25:23;21.30;99.90
13354;DHT22;6746;50.892;4.064;2023-08-01T16:27:57;21.20;99.90
13354;DHT22;6746;50.892;4.064;2023-08-01T16:30:26;21.10;99.90
13354;DHT22;6746;50.892;4.064;2023-08-01T16:32:55;21.20;99.90
13354;DHT22;6746;50.892;4.064;2023-08-01T16:35:24;21.20;99.90
13354;DHT22;6746;50.892;4.064;2023-08-01T16:37:53;21.20;99.90
13354;DHT22;6746;50.892;4.064;2023-08-01T16:40:22;21.30;99.90
13354;DHT22;6746;50.892;4.064;2023-08-01T16:42:56;21.30;99.90
13354;DHT22;6746;50.892;4.064;2023-08-01T16:45:25;21.50;99.90
13354;DHT22;6746;50.892;4.064;2023-08-01T16:48:07;21.70;99.90
13354;DHT22;6746;50.892;4.064;2023-08-01T16:50:35;21.80;99.90
13354;DHT22;6746;50.892;4.064;2023-08-01T16:53:07;21.80;99.90